createdAt,value
2022-12-20T00:00:57.408Z,100369.78
2022-12-20T00:03:24.325Z,100366.56
2022-12-20T00:05:51.211Z,100375.13
2022-12-20T00:08:19.324Z,100374.75
2022-12-20T00:10:46.196Z,100371.53
2022-12-20T00:13:13.351Z,100356.34
2022-12-20T00:15:40.273Z,100352.78
2022-12-20T00:18:07.553Z,100343.91
2022-12-20T00:20:34.907Z,100341.25
2022-12-20T00:23:01.849Z,100341.78
2022-12-20T00:25:30.475Z,100341.88
2022-12-20T00:27:57.845Z,100345.56
2022-12-20T00:30:24.704Z,100342.72
2022-12-20T00:32:51.781Z,100336.22
2022-12-20T00:35:18.822Z,100334.88
2022-12-20T00:37:45.936Z,100332.22
2022-12-20T00:40:13.550Z,100322.88
2022-12-20T00:42:42.107Z,100328.72
2022-12-20T00:45:10.193Z,100328.41
2022-12-20T00:47:37.102Z,100329.22
2022-12-20T00:50:05.554Z,100333.22
2022-12-20T00:52:32.388Z,100341.56
2022-12-20T00:54:59.204Z,100335.19
2022-12-20T00:57:26.221Z,100339.03
2022-12-20T00:59:54.576Z,100328.75
2022-12-20T01:02:21.661Z,100329.22
2022-12-20T01:04:49.050Z,100333.94
2022-12-20T01:07:16.216Z,100339.66
2022-12-20T01:09:43.127Z,100321.75
2022-12-20T01:12:10.250Z,100319.78
2022-12-20T01:14:37.387Z,100335.59
2022-12-20T01:17:05.557Z,100344.63
2022-12-20T01:19:32.995Z,100359.69
2022-12-20T01:21:59.817Z,100367.88
2022-12-20T01:24:26.980Z,100355.81
2022-12-20T01:26:54.307Z,100332.38
2022-12-20T01:29:21.263Z,100324.91
2022-12-20T01:31:48.849Z,100332.94
2022-12-20T01:34:17.032Z,100321.63
2022-12-20T01:36:43.810Z,100337.19
2022-12-20T01:39:14.746Z,100325.69
2022-12-20T01:41:44.986Z,100329.16
2022-12-20T01:44:54.513Z,100335.59
2022-12-20T01:47:22.946Z,100329.91
2022-12-20T01:49:54.733Z,100314.03
2022-12-20T01:52:32.173Z,100318.69
2022-12-20T01:55:07.565Z,100303.97
2022-12-20T01:57:42.192Z,100310.44
2022-12-20T02:00:11.037Z,100312.97
2022-12-20T02:02:43.102Z,100297.41
2022-12-20T02:05:12.555Z,100295.56
2022-12-20T02:07:40.112Z,100308.47
2022-12-20T02:10:10.985Z,100325.19
2022-12-20T02:12:42.879Z,100312.66
2022-12-20T02:15:47.471Z,100304.47
2022-12-20T02:18:23.851Z,100305.63
2022-12-20T02:21:24.196Z,100308.31
2022-12-20T02:24:24.665Z,100312.34
2022-12-20T02:27:31.732Z,100295.16
2022-12-20T02:30:13.490Z,100280.13
2022-12-20T02:32:51.332Z,100280.81
2022-12-20T02:35:24.009Z,100271.09
2022-12-20T02:37:55.037Z,100281.78
2022-12-20T02:40:27.573Z,100283.66
2022-12-20T02:43:01.610Z,100285.47
2022-12-20T02:45:37.236Z,100267.94
2022-12-20T02:48:10.567Z,100263.72
2022-12-20T02:50:49.055Z,100256.16
2022-12-20T02:53:18.300Z,100264.19
2022-12-20T02:55:53.859Z,100252.69
2022-12-20T02:58:30.719Z,100257.19
2022-12-20T03:01:06.263Z,100251.13
2022-12-20T03:03:35.925Z,100238.63
2022-12-20T03:06:04.243Z,100241.78
2022-12-20T03:08:31.183Z,100251.78
2022-12-20T03:10:58.334Z,100249.97
2022-12-20T03:13:26.298Z,100253.44
2022-12-20T03:16:02.296Z,100234.56
2022-12-20T03:18:29.257Z,100221.66
2022-12-20T03:20:56.009Z,100236.22
2022-12-20T03:23:23.071Z,100230.88
2022-12-20T03:25:50.161Z,100236.22
2022-12-20T03:28:26.699Z,100232.56
2022-12-20T03:30:54.473Z,100243.91
2022-12-20T03:33:22.887Z,100248.78
2022-12-20T03:35:50.728Z,100250.00
2022-12-20T03:38:18.695Z,100249.91
2022-12-20T03:40:45.592Z,100235.50
2022-12-20T03:43:15.056Z,100250.63
2022-12-20T03:45:42.366Z,100242.09
2022-12-20T03:48:09.159Z,100237.81
2022-12-20T03:50:37.418Z,100222.25
2022-12-20T03:53:04.756Z,100229.97
2022-12-20T03:55:33.265Z,100220.75
2022-12-20T03:58:00.596Z,100218.06
2022-12-20T04:00:32.035Z,100213.03
2022-12-20T04:03:18.511Z,100211.69
2022-12-20T04:05:46.990Z,100213.34
2022-12-20T04:08:14.033Z,100207.00
2022-12-20T04:10:41.198Z,100204.34
2022-12-20T04:13:08.417Z,100212.03
2022-12-20T04:15:35.391Z,100200.94
2022-12-20T04:18:02.582Z,100201.69
2022-12-20T04:20:29.628Z,100196.47
2022-12-20T04:23:15.410Z,100203.53
2022-12-20T04:25:42.393Z,100199.63
2022-12-20T04:28:10.284Z,100206.16
2022-12-20T04:30:38.116Z,100201.53
2022-12-20T04:33:06.173Z,100199.06
2022-12-20T04:35:33.585Z,100190.03
2022-12-20T04:38:01.538Z,100181.69
2022-12-20T04:40:30.123Z,100183.97
2022-12-20T04:42:58.579Z,100174.50
2022-12-20T04:45:25.869Z,100179.03
2022-12-20T04:47:54.299Z,100167.47
2022-12-20T04:50:26.906Z,100177.19
2022-12-20T04:52:53.757Z,100162.56
2022-12-20T04:55:20.916Z,100154.69
2022-12-20T04:57:49.126Z,100157.34
2022-12-20T05:00:17.131Z,100150.13
2022-12-20T05:02:47.426Z,100152.81
2022-12-20T05:05:17.942Z,100155.97
2022-12-20T05:07:50.339Z,100160.09
2022-12-20T05:10:19.258Z,100165.94
2022-12-20T05:12:46.915Z,100166.97
2022-12-20T05:15:23.333Z,100149.00
2022-12-20T05:17:50.296Z,100149.31
2022-12-20T05:20:17.449Z,100151.50
2022-12-20T05:22:46.330Z,100155.34
2022-12-20T05:25:14.395Z,100149.84
2022-12-20T05:27:42.436Z,100153.91
2022-12-20T05:30:10.949Z,100150.19
2022-12-20T05:32:39.163Z,100144.78
2022-12-20T05:35:06.549Z,100139.88
2022-12-20T05:37:33.991Z,100136.66
2022-12-20T05:40:10.082Z,100142.00
2022-12-20T05:42:49.327Z,100132.56
2022-12-20T05:45:17.021Z,100125.56
2022-12-20T05:47:53.582Z,100130.13
2022-12-20T05:50:20.402Z,100123.78
2022-12-20T05:53:20.957Z,100126.03
2022-12-20T05:55:54.411Z,100116.94
2022-12-20T05:58:26.268Z,100124.34
2022-12-20T06:01:00.753Z,100119.06
2022-12-20T06:03:29.531Z,100121.38
2022-12-20T06:05:57.983Z,100131.00
2022-12-20T06:08:28.252Z,100124.66
2022-12-20T06:10:56.279Z,100129.06
2022-12-20T06:13:24.489Z,100123.53
2022-12-20T06:15:54.301Z,100126.69
2022-12-20T06:18:21.764Z,100130.34
2022-12-20T06:20:53.792Z,100134.31
2022-12-20T06:23:23.655Z,100129.97
2022-12-20T06:26:06.538Z,100125.63
2022-12-20T06:28:35.552Z,100117.84
2022-12-20T06:31:02.861Z,100125.53
2022-12-20T06:33:51.725Z,100121.84
2022-12-20T06:36:22.876Z,100121.56
2022-12-20T06:38:50.884Z,100129.97
2022-12-20T06:41:18.662Z,100137.84
2022-12-20T06:43:46.173Z,100137.84
2022-12-20T06:46:13.086Z,100133.88
2022-12-20T06:48:39.999Z,100134.03
2022-12-20T06:51:09.025Z,100141.59
2022-12-20T06:53:37.496Z,100134.44
2022-12-20T06:56:05.795Z,100139.88
2022-12-20T06:58:32.651Z,100133.72
2022-12-20T07:00:59.605Z,100135.97
2022-12-20T07:03:26.761Z,100129.66
2022-12-20T07:05:55.071Z,100132.53
2022-12-20T07:08:23.536Z,100138.84
2022-12-20T07:10:52.135Z,100127.84
2022-12-20T07:13:19.576Z,100119.09
2022-12-20T07:15:46.533Z,100120.63
2022-12-20T07:18:13.536Z,100115.06
2022-12-20T07:20:40.717Z,100112.03
2022-12-20T07:23:07.881Z,100110.94
2022-12-20T07:25:34.693Z,100101.16
2022-12-20T07:28:04.219Z,100100.91
2022-12-20T07:30:30.965Z,100104.94
2022-12-20T07:32:57.834Z,100097.81
2022-12-20T07:35:24.626Z,100101.44
2022-12-20T07:37:52.930Z,100109.50
2022-12-20T07:40:19.877Z,100112.56
2022-12-20T07:42:48.995Z,100105.25
2022-12-20T07:45:17.686Z,100107.03
2022-12-20T07:47:44.725Z,100107.47
2022-12-20T07:50:11.711Z,100109.59
2022-12-20T07:52:43.448Z,100107.94
2022-12-20T07:55:13.139Z,100106.56
2022-12-20T07:57:47.588Z,100115.09
2022-12-20T08:00:17.973Z,100104.91
2022-12-20T08:02:51.121Z,100108.78
2022-12-20T08:05:18.177Z,100115.69
2022-12-20T08:07:48.561Z,100106.09
2022-12-20T08:10:18.777Z,100111.28
2022-12-20T08:12:48.882Z,100114.84
2022-12-20T08:15:18.286Z,100115.56
2022-12-20T08:17:45.181Z,100112.13
2022-12-20T08:20:13.228Z,100101.38
2022-12-20T08:22:40.240Z,100105.72
2022-12-20T08:25:08.593Z,100105.72
2022-12-20T08:27:35.557Z,100101.91
2022-12-20T08:30:02.433Z,100092.72
2022-12-20T08:32:30.705Z,100097.84
2022-12-20T08:34:57.735Z,100088.25
2022-12-20T08:37:24.687Z,100086.13
2022-12-20T08:39:51.868Z,100069.13
2022-12-20T08:42:18.717Z,100073.75
2022-12-20T08:44:45.760Z,100083.38
2022-12-20T08:47:12.544Z,100087.72
2022-12-20T08:49:47.142Z,100085.22
2022-12-20T08:52:15.159Z,100087.31
2022-12-20T08:54:42.413Z,100058.22
2022-12-20T08:57:09.449Z,100059.66
2022-12-20T08:59:36.297Z,100054.56
2022-12-20T09:02:03.169Z,100056.19
2022-12-20T09:04:30.386Z,100051.66
2022-12-20T09:06:58.566Z,100052.09
2022-12-20T09:09:25.851Z,100044.47
2022-12-20T09:11:52.615Z,100043.56
2022-12-20T09:14:19.770Z,100049.88
2022-12-20T09:16:46.552Z,100038.25
2022-12-20T09:19:16.808Z,100033.72
2022-12-20T09:21:43.943Z,100041.22
2022-12-20T09:24:12.059Z,100054.50
2022-12-20T09:26:38.938Z,100060.88
2022-12-20T09:29:05.953Z,100063.16
2022-12-20T09:31:32.972Z,100052.00
2022-12-20T09:34:00.270Z,100068.16
2022-12-20T09:36:30.192Z,100051.72
2022-12-20T09:38:57.737Z,100054.09
2022-12-20T09:41:34.828Z,100036.22
2022-12-20T09:44:16.070Z,100039.09
2022-12-20T09:46:47.018Z,100044.91
2022-12-20T09:49:19.298Z,100044.53
2022-12-20T09:52:12.817Z,100048.66
2022-12-20T09:54:52.901Z,100049.28
2022-12-20T09:57:34.534Z,100047.59
2022-12-20T10:00:14.234Z,100048.06
2022-12-20T10:02:58.831Z,100051.53
2022-12-20T10:05:45.409Z,100039.50
2022-12-20T10:08:28.360Z,100044.69
2022-12-20T10:10:59.772Z,100046.28
2022-12-20T10:13:51.239Z,100034.03
2022-12-20T10:16:36.747Z,100028.97
2022-12-20T10:19:35.767Z,100018.56
2022-12-20T10:22:14.045Z,100025.34
2022-12-20T10:24:49.165Z,100024.75
2022-12-20T10:27:20.167Z,100014.44
2022-12-20T10:29:51.909Z,100004.94
2022-12-20T10:32:22.455Z,100007.28
2022-12-20T10:34:57.512Z,100002.53
2022-12-20T10:37:24.591Z,100006.50
2022-12-20T10:39:52.679Z,99997.19
2022-12-20T10:42:32.185Z,99999.09
2022-12-20T10:45:01.177Z,99984.00
2022-12-20T10:47:41.057Z,99996.06
2022-12-20T10:50:15.524Z,99984.03
2022-12-20T10:52:44.295Z,99977.41
2022-12-20T10:55:35.538Z,99969.31
2022-12-20T10:58:06.339Z,99975.16
2022-12-20T11:00:34.472Z,99974.75
2022-12-20T11:03:13.533Z,99977.03
2022-12-20T11:05:40.987Z,99968.31
2022-12-20T11:11:15.264Z,99973.31
2022-12-20T11:13:43.361Z,99959.22
2022-12-20T11:16:34.368Z,99953.84
2022-12-20T11:19:31.199Z,99955.53
2022-12-20T11:22:12.105Z,99951.13
2022-12-20T11:24:52.099Z,99943.25
2022-12-20T11:27:34.204Z,99939.31
2022-12-20T11:30:20.460Z,99932.06
2022-12-20T11:33:47.225Z,99929.16
2022-12-20T11:36:27.151Z,99939.94
2022-12-20T11:39:11.151Z,99936.41
2022-12-20T11:41:47.876Z,99941.16
2022-12-20T11:44:30.663Z,99924.56
2022-12-20T11:47:29.204Z,99926.22
2022-12-20T11:50:17.679Z,99911.91
2022-12-20T11:52:52.258Z,99884.34
2022-12-20T11:55:26.329Z,99866.91
2022-12-20T11:58:18.281Z,99866.06
2022-12-20T12:00:54.522Z,99879.97
2022-12-20T12:03:30.469Z,99883.53
2022-12-20T12:06:04.967Z,99883.53
2022-12-20T12:08:43.260Z,99893.91
2022-12-20T12:11:55.850Z,99886.66
2022-12-20T12:14:06.391Z,99890.59
2022-12-20T12:16:39.810Z,99892.91
2022-12-20T12:19:12.723Z,99894.09
2022-12-20T12:21:49.333Z,99899.94
2022-12-20T12:24:24.526Z,99887.09
2022-12-20T12:26:53.637Z,99884.41
2022-12-20T12:29:22.155Z,99872.56
2022-12-20T12:31:59.655Z,99862.81
2022-12-20T12:34:48.774Z,99857.22
2022-12-20T12:37:42.406Z,99856.22
2022-12-20T12:40:52.821Z,99856.00
2022-12-20T12:43:46.177Z,99842.53
2022-12-20T12:46:19.026Z,99846.03
2022-12-20T12:48:55.224Z,99849.78
2022-12-20T12:51:29.226Z,99846.88
2022-12-20T12:54:18.131Z,99854.31
2022-12-20T12:57:00.898Z,99848.72
2022-12-20T12:59:50.825Z,99837.97
2022-12-20T13:02:51.458Z,99828.19
2022-12-20T13:05:42.293Z,99825.31
2022-12-20T13:08:17.910Z,99821.56
2022-12-20T13:11:01.779Z,99796.25
2022-12-20T13:13:29.152Z,99783.38
2022-12-20T13:16:48.758Z,99789.63
2022-12-20T13:19:17.298Z,99787.97
2022-12-20T13:21:45.500Z,99787.31
2022-12-20T13:24:51.907Z,99789.41
2022-12-20T13:27:31.463Z,99801.88
2022-12-20T13:30:26.313Z,99816.00
2022-12-20T13:33:13.628Z,99806.06
2022-12-20T13:35:55.554Z,99803.97
2022-12-20T13:38:57.924Z,99811.63
2022-12-20T13:41:36.025Z,99813.91
2022-12-20T13:44:46.469Z,99822.41
2022-12-20T13:47:32.238Z,99810.59
2022-12-20T13:50:25.669Z,99803.72
2022-12-20T13:52:52.853Z,99794.41
2022-12-20T13:55:31.542Z,99791.50
2022-12-20T13:58:04.966Z,99787.59
2022-12-20T14:00:34.371Z,99784.69
2022-12-20T14:03:02.896Z,99783.84
2022-12-20T14:05:37.919Z,99788.59
2022-12-20T14:08:09.662Z,99789.41
2022-12-20T14:10:37.332Z,99783.44
2022-12-20T14:13:19.658Z,99778.03
2022-12-20T14:15:48.575Z,99770.75
2022-12-20T14:18:21.674Z,99761.59
2022-12-20T14:20:53.113Z,99768.63
2022-12-20T14:23:23.557Z,99765.75
2022-12-20T14:25:56.267Z,99771.16
2022-12-20T14:28:35.441Z,99772.38
2022-12-20T14:31:06.224Z,99772.38
2022-12-20T14:33:38.218Z,99778.19
2022-12-20T14:36:20.024Z,99775.06
2022-12-20T14:38:50.706Z,99774.88
2022-12-20T14:41:34.403Z,99767.63
2022-12-20T14:44:15.629Z,99771.38
2022-12-20T14:46:50.213Z,99754.75
2022-12-20T14:49:24.539Z,99753.09
2022-12-20T14:52:05.623Z,99749.75
2022-12-20T14:55:06.403Z,99752.03
2022-12-20T14:57:25.437Z,99738.13
2022-12-20T15:00:09.888Z,99746.88
2022-12-20T15:02:46.352Z,99750.19
2022-12-20T15:05:50.332Z,99750.56
2022-12-20T15:08:21.718Z,99750.56
2022-12-20T15:10:56.566Z,99744.56
2022-12-20T15:13:30.327Z,99737.13
2022-12-20T15:16:01.218Z,99725.47
2022-12-20T15:18:29.723Z,99719.88
2022-12-20T15:21:04.849Z,99717.78
2022-12-20T15:23:32.944Z,99721.97
2022-12-20T15:25:59.935Z,99716.34
2022-12-20T15:28:27.655Z,99725.69
2022-12-20T15:30:55.539Z,99709.50
2022-12-20T15:33:27.645Z,99711.16
2022-12-20T15:35:55.865Z,99710.13
2022-12-20T15:38:47.732Z,99713.66
2022-12-20T15:41:19.284Z,99706.56
2022-12-20T15:43:47.497Z,99721.53
2022-12-20T15:46:14.321Z,99732.72
2022-12-20T15:48:41.248Z,99736.28
2022-12-20T15:51:17.986Z,99724.66
2022-12-20T15:53:45.360Z,99713.66
2022-12-20T15:56:19.202Z,99722.97
2022-12-20T15:58:46.432Z,99716.56
2022-12-20T16:01:20.227Z,99718.84
2022-12-20T16:03:47.724Z,99730.28
2022-12-20T16:06:16.356Z,99729.00
2022-12-20T16:08:43.209Z,99725.09
2022-12-20T16:11:21.465Z,99740.84
2022-12-20T16:13:48.344Z,99738.56
2022-12-20T16:16:18.392Z,99737.31
2022-12-20T16:18:45.650Z,99723.19
2022-12-20T16:21:17.489Z,99728.81
2022-12-20T16:23:45.367Z,99724.03
2022-12-20T16:26:14.077Z,99718.22
2022-12-20T16:28:41.104Z,99719.25
2022-12-20T16:31:17.578Z,99730.22
2022-12-20T16:33:44.394Z,99733.16
2022-12-20T16:36:11.793Z,99731.47
2022-12-20T16:38:40.845Z,99720.91
2022-12-20T16:41:14.669Z,99723.00
2022-12-20T16:43:42.885Z,99715.94
2022-12-20T16:46:13.487Z,99720.28
2022-12-20T16:48:40.902Z,99711.56
2022-12-20T16:51:33.590Z,99716.34
2022-12-20T16:54:22.199Z,99723.81
2022-12-20T16:56:52.843Z,99713.25
2022-12-20T16:59:22.164Z,99723.00
2022-12-20T17:01:54.580Z,99725.91
2022-12-20T17:04:22.611Z,99726.75
2022-12-20T17:06:50.383Z,99735.66
2022-12-20T17:12:15.086Z,99716.56
2022-12-20T17:14:42.279Z,99734.00
2022-12-20T17:17:09.155Z,99717.63
2022-12-20T17:19:38.589Z,99713.06
2022-12-20T17:24:58.014Z,99712.63
2022-12-20T17:27:25.116Z,99712.41
2022-12-20T17:29:51.867Z,99717.38
2022-12-20T17:32:21.871Z,99709.06
2022-12-20T17:34:49.544Z,99713.88
2022-12-20T17:37:17.067Z,99705.16
2022-12-20T17:39:43.987Z,99693.97
2022-12-20T17:42:13.985Z,99689.16
2022-12-20T17:44:40.747Z,99690.63
2022-12-20T17:47:08.138Z,99697.06
2022-12-20T17:49:34.900Z,99702.44
2022-12-20T17:52:01.748Z,99687.91
2022-12-20T17:54:33.546Z,99678.34
2022-12-20T17:57:03.873Z,99679.59
2022-12-20T17:59:32.064Z,99676.09
2022-12-20T18:01:59.423Z,99670.25
2022-12-20T18:04:26.575Z,99666.09
2022-12-20T18:06:53.740Z,99676.09
2022-12-20T18:09:21.672Z,99676.09
2022-12-20T18:11:49.169Z,99671.28
2022-12-20T18:14:17.032Z,99664.03
2022-12-20T18:16:45.299Z,99649.69
2022-12-20T18:19:17.220Z,99642.44
2022-12-20T18:21:44.612Z,99643.50
2022-12-20T18:24:13.913Z,99643.06
2022-12-20T18:26:42.294Z,99664.03
2022-12-20T18:29:11.044Z,99666.94
2022-12-20T18:31:38.772Z,99669.84
2022-12-20T18:34:07.528Z,99672.13
2022-12-20T18:36:37.284Z,99675.66
2022-12-20T18:39:08.670Z,99679.19
2022-12-20T18:41:41.830Z,99666.34
2022-12-20T18:44:11.337Z,99670.88
2022-12-20T18:46:38.304Z,99679.00
2022-12-20T18:49:06.724Z,99673.59
2022-12-20T18:51:36.448Z,99673.81
2022-12-20T18:54:05.843Z,99658.06
2022-12-20T18:56:36.765Z,99642.69
2022-12-20T18:59:11.596Z,99634.00
2022-12-20T19:01:43.482Z,99642.28
2022-12-20T19:04:12.308Z,99634.81
2022-12-20T19:06:42.317Z,99640.16
2022-12-20T19:09:13.146Z,99641.44
2022-12-20T19:11:42.288Z,99639.34
2022-12-20T19:14:11.419Z,99650.56
2022-12-20T19:16:38.947Z,99666.13
2022-12-20T19:19:07.812Z,99663.00
2022-12-20T19:21:39.679Z,99670.47
2022-12-20T19:24:11.852Z,99659.47
2022-12-20T19:26:39.527Z,99673.16
2022-12-20T19:29:07.159Z,99662.16
2022-12-20T19:31:36.897Z,99657.41
2022-12-20T19:34:07.550Z,99673.38
2022-12-20T19:36:39.611Z,99676.25
2022-12-20T19:39:16.426Z,99662.16
2022-12-20T19:41:50.636Z,99655.13
2022-12-20T19:44:28.640Z,99645.13
2022-12-20T19:46:55.756Z,99651.53
2022-12-20T19:49:22.636Z,99638.06
2022-12-20T19:51:51.241Z,99649.72
2022-12-20T19:54:18.028Z,99645.75
2022-12-20T19:56:46.619Z,99640.97
2022-12-20T19:59:13.503Z,99645.56
2022-12-20T20:01:41.043Z,99644.94
2022-12-20T20:04:08.017Z,99635.19
2022-12-20T20:06:34.909Z,99623.13
2022-12-20T20:09:03.575Z,99620.03
2022-12-20T20:11:30.623Z,99614.66
2022-12-20T20:13:57.382Z,99624.38
2022-12-20T20:16:24.561Z,99636.84
2022-12-20T20:22:02.285Z,99633.28
2022-12-20T20:33:46.115Z,99644.34
2022-12-20T20:36:17.264Z,99639.34
2022-12-20T20:38:44.464Z,99633.53
2022-12-20T20:41:11.961Z,99630.22
2022-12-20T20:43:40.133Z,99649.72
2022-12-20T20:46:12.242Z,99653.69
2022-12-20T20:48:39.997Z,99639.34
2022-12-20T20:51:09.542Z,99648.09
2022-12-20T20:53:36.685Z,99652.25
2022-12-20T20:56:08.476Z,99673.22
2022-12-20T20:58:36.968Z,99673.41
2022-12-20T21:01:07.829Z,99673.84
2022-12-20T21:03:35.343Z,99681.31
2022-12-20T21:08:51.265Z,99681.50
2022-12-20T21:11:18.229Z,99677.97
2022-12-20T21:13:45.248Z,99679.03
2022-12-20T21:16:15.599Z,99685.22
2022-12-20T21:18:42.777Z,99677.16
2022-12-20T21:21:12.696Z,99672.38
2022-12-20T21:23:44.168Z,99676.94
2022-12-20T21:26:12.695Z,99683.38
2022-12-20T21:28:39.654Z,99670.88
2022-12-20T21:31:09.134Z,99676.28
2022-12-20T21:33:36.284Z,99676.69
2022-12-20T21:36:07.397Z,99666.72
2022-12-20T21:38:34.984Z,99672.97
2022-12-20T21:41:03.582Z,99685.84
2022-12-20T21:43:32.701Z,99678.16
2022-12-20T21:45:59.825Z,99669.66
2022-12-20T21:48:27.774Z,99678.56
2022-12-20T21:50:59.356Z,99668.84
2022-12-20T21:53:26.270Z,99669.25
2022-12-20T21:55:55.027Z,99659.94
2022-12-20T21:58:22.151Z,99663.69
2022-12-20T22:00:54.751Z,99661.78
2022-12-20T22:03:24.736Z,99670.72
2022-12-20T22:05:54.662Z,99670.94
2022-12-20T22:08:22.730Z,99673.22
2022-12-20T22:10:58.231Z,99670.50
2022-12-20T22:13:25.692Z,99673.00
2022-12-20T22:15:54.280Z,99664.06
2022-12-20T22:18:21.755Z,99657.66
2022-12-20T22:20:48.974Z,99658.06
2022-12-20T22:23:16.527Z,99673.59
2022-12-20T22:25:43.677Z,99666.13
2022-12-20T22:28:10.582Z,99662.63
2022-12-20T22:30:41.477Z,99659.31
2022-12-20T22:33:09.714Z,99653.09
2022-12-20T22:35:36.461Z,99668.44
2022-12-20T22:38:04.120Z,99669.03
2022-12-20T22:40:31.351Z,99665.31
2022-12-20T22:42:58.027Z,99667.00
2022-12-20T22:45:24.950Z,99660.13
2022-12-20T22:47:52.820Z,99660.97
2022-12-20T22:50:21.006Z,99666.16
2022-12-20T22:52:47.716Z,99657.00
2022-12-20T22:55:14.972Z,99650.19
2022-12-20T22:57:41.942Z,99649.56
2022-12-20T23:00:10.639Z,99648.94
2022-12-20T23:02:37.811Z,99656.81
2022-12-20T23:05:05.514Z,99662.63
2022-12-20T23:07:33.697Z,99651.00
2022-12-20T23:10:00.714Z,99659.72
2022-12-20T23:12:27.444Z,99646.25
2022-12-20T23:15:00.152Z,99642.69
2022-12-20T23:17:32.597Z,99646.22
2022-12-20T23:19:59.770Z,99644.56
2022-12-20T23:22:26.507Z,99633.13
2022-12-20T23:24:54.799Z,99635.03
2022-12-20T23:27:21.531Z,99627.34
2022-12-20T23:29:48.252Z,99636.03
2022-12-20T23:32:15.026Z,99629.84
2022-12-20T23:34:41.876Z,99632.31
2022-12-20T23:37:08.994Z,99627.53
2022-12-20T23:39:35.747Z,99637.31
2022-12-20T23:42:04.112Z,99635.22
2022-12-20T23:44:30.903Z,99632.09
2022-12-20T23:46:57.839Z,99632.53
2022-12-20T23:49:24.649Z,99633.97
2022-12-20T23:51:51.506Z,99635.22
2022-12-20T23:54:18.542Z,99624.66
2022-12-20T23:56:45.425Z,99622.59
2022-12-20T23:59:14.372Z,99612.66
